createdAt,value
2017-11-04T00:00:13.991Z,36.53
2017-11-04T00:02:41.518Z,41.40
2017-11-04T00:05:09.029Z,37.37
2017-11-04T00:07:36.595Z,39.37
2017-11-04T00:10:04.100Z,40.53
2017-11-04T00:12:31.603Z,39.60
2017-11-04T00:14:59.236Z,40.90
2017-11-04T00:17:27.612Z,40.77
2017-11-04T00:19:55.114Z,37.50
2017-11-04T00:22:22.812Z,40.03
2017-11-04T00:24:50.319Z,39.10
2017-11-04T00:27:17.822Z,35.83
2017-11-04T00:29:45.368Z,39.20
2017-11-04T00:32:12.875Z,39.33
2017-11-04T00:34:40.386Z,40.07
2017-11-04T00:37:08.124Z,40.67
2017-11-04T00:39:35.636Z,43.03
2017-11-04T00:42:03.336Z,41.40
2017-11-04T00:44:30.949Z,41.63
2017-11-04T00:46:58.459Z,47.37
2017-11-04T00:49:25.977Z,51.60
2017-11-04T00:51:53.556Z,47.57
2017-11-04T00:54:21.943Z,43.10
2017-11-04T00:56:49.467Z,44.57
2017-11-04T00:59:17.043Z,43.60
2017-11-04T01:01:44.803Z,46.00
2017-11-04T01:04:12.299Z,40.77
2017-11-04T01:06:39.835Z,40.17
2017-11-04T01:09:07.488Z,43.53
2017-11-04T01:11:35.002Z,50.07
2017-11-04T01:14:02.749Z,49.63
2017-11-04T01:16:30.252Z,42.97
2017-11-04T01:18:58.072Z,43.03
2017-11-04T01:21:25.628Z,41.90
2017-11-04T01:23:53.218Z,43.47
2017-11-04T01:26:20.777Z,42.90
2017-11-04T01:28:48.335Z,42.90
2017-11-04T01:31:15.852Z,41.73
2017-11-04T01:33:50.119Z,42.57
2017-11-04T01:36:17.632Z,39.73
2017-11-04T01:38:45.172Z,40.20
2017-11-04T01:41:12.739Z,38.17
2017-11-04T01:43:41.023Z,42.00
2017-11-04T01:46:08.572Z,44.73
2017-11-04T01:48:35.779Z,47.30
2017-11-04T01:51:03.305Z,42.57
2017-11-04T01:53:30.321Z,40.70
2017-11-04T01:55:57.991Z,39.10
2017-11-04T01:58:25.519Z,40.07
2017-11-04T02:00:53.043Z,38.93
2017-11-04T02:03:20.611Z,38.93
2017-11-04T02:05:48.143Z,42.37
2017-11-04T02:08:15.981Z,46.43
2017-11-04T02:10:44.344Z,43.60
2017-11-04T02:13:11.902Z,50.50
2017-11-04T02:15:39.411Z,49.30
2017-11-04T02:18:07.081Z,44.20
2017-11-04T02:20:34.591Z,48.03
2017-11-04T02:23:02.460Z,47.53
2017-11-04T02:25:30.102Z,53.37
2017-11-04T02:27:58.387Z,53.97
2017-11-04T02:30:25.895Z,53.50
2017-11-04T02:32:53.645Z,52.53
2017-11-04T02:35:21.962Z,55.50
2017-11-04T02:37:49.472Z,49.07
2017-11-04T02:40:17.140Z,48.30
2017-11-04T02:42:44.707Z,50.57
2017-11-04T02:45:12.211Z,53.10
2017-11-04T02:47:39.779Z,58.10
2017-11-04T02:50:07.319Z,53.57
2017-11-04T02:52:35.274Z,48.20
2017-11-04T02:55:02.943Z,43.67
2017-11-04T02:57:30.590Z,39.73
2017-11-04T02:59:58.152Z,39.10
2017-11-04T03:02:25.711Z,35.67
2017-11-04T03:04:53.224Z,36.83
2017-11-04T03:07:20.723Z,35.07
2017-11-04T03:09:48.262Z,32.80
2017-11-04T03:12:15.807Z,32.13
2017-11-04T03:14:43.379Z,28.30
2017-11-04T03:17:11.527Z,32.30
2017-11-04T03:19:39.040Z,31.23
2017-11-04T03:22:07.503Z,27.70
2017-11-04T03:24:35.211Z,31.00
2017-11-04T03:27:02.720Z,33.30
2017-11-04T03:29:30.273Z,39.03
2017-11-04T03:31:58.603Z,38.47
2017-11-04T03:34:26.108Z,35.17
2017-11-04T03:36:53.643Z,36.37
2017-11-04T03:39:21.171Z,38.70
2017-11-04T03:41:48.688Z,37.37
2017-11-04T03:44:16.211Z,37.90
2017-11-04T03:46:43.926Z,36.10
2017-11-04T03:49:11.459Z,35.80
2017-11-04T03:51:38.975Z,35.33
2017-11-04T03:54:06.547Z,32.13
2017-11-04T03:56:34.172Z,32.50
2017-11-04T03:59:01.695Z,36.20
2017-11-04T04:01:29.244Z,34.87
2017-11-04T04:03:56.784Z,32.30
2017-11-04T04:06:24.364Z,35.70
2017-11-04T04:08:51.896Z,34.63
2017-11-04T04:11:19.398Z,33.17
2017-11-04T04:13:46.986Z,34.93
2017-11-04T04:16:14.519Z,34.90
2017-11-04T04:18:42.056Z,32.37
2017-11-04T04:21:09.606Z,31.57
2017-11-04T04:23:37.107Z,31.40
2017-11-04T04:26:05.327Z,31.40
2017-11-04T04:28:32.899Z,34.03
2017-11-04T04:31:00.402Z,36.80
2017-11-04T04:33:27.933Z,37.53
2017-11-04T04:35:55.467Z,39.57
2017-11-04T04:38:22.983Z,40.10
2017-11-04T04:40:50.478Z,41.70
2017-11-04T04:43:18.134Z,42.37
2017-11-04T04:45:45.648Z,38.00
2017-11-04T04:48:13.245Z,38.27
2017-11-04T04:50:40.775Z,37.87
2017-11-04T04:53:08.331Z,39.30
2017-11-04T04:55:36.604Z,38.23
2017-11-04T04:58:05.050Z,41.80
2017-11-04T05:00:32.843Z,38.40
2017-11-04T05:03:00.421Z,40.60
2017-11-04T05:05:28.767Z,40.10
2017-11-04T05:07:56.281Z,45.40
2017-11-04T05:10:23.791Z,39.70
2017-11-04T05:12:51.490Z,35.83
2017-11-04T05:15:19.005Z,31.80
2017-11-04T05:17:46.559Z,35.20
2017-11-04T05:20:14.128Z,32.53
2017-11-04T05:22:41.640Z,32.03
2017-11-04T05:25:09.872Z,34.17
2017-11-04T05:27:37.497Z,30.70
2017-11-04T05:30:05.028Z,35.37
2017-11-04T05:32:32.540Z,34.90
2017-11-04T05:35:00.127Z,36.83
2017-11-04T05:37:27.697Z,35.33
2017-11-04T05:39:55.202Z,35.03
2017-11-04T05:42:22.768Z,33.97
2017-11-04T05:44:50.296Z,33.73
2017-11-04T05:47:17.800Z,33.43
2017-11-04T05:49:45.522Z,33.03
2017-11-04T05:52:14.867Z,32.63
2017-11-04T05:54:42.377Z,32.17
2017-11-04T05:57:09.935Z,35.00
2017-11-04T05:59:37.459Z,33.00
2017-11-04T06:02:05.725Z,32.93
2017-11-04T06:04:33.284Z,28.97
2017-11-04T06:07:00.826Z,29.20
2017-11-04T06:09:28.331Z,28.23
2017-11-04T06:11:55.876Z,27.07
2017-11-04T06:14:23.394Z,25.33
2017-11-04T06:16:50.895Z,26.40
2017-11-04T06:19:19.211Z,27.63
2017-11-04T06:21:46.871Z,28.10
2017-11-04T06:24:14.375Z,27.33
2017-11-04T06:26:41.956Z,27.30
2017-11-04T06:29:10.256Z,27.30
2017-11-04T06:31:37.788Z,28.67
2017-11-04T06:34:05.372Z,28.77
2017-11-04T06:36:32.879Z,26.97
2017-11-04T06:39:00.401Z,28.83
2017-11-04T06:41:27.946Z,26.70
2017-11-04T06:43:55.463Z,27.07
2017-11-04T06:46:22.997Z,24.37
2017-11-04T06:48:50.679Z,24.40
2017-11-04T06:51:18.269Z,25.50
2017-11-04T06:53:45.820Z,25.70
2017-11-04T06:56:14.155Z,25.87
2017-11-04T06:58:41.712Z,24.97
2017-11-04T07:01:09.224Z,27.20
2017-11-04T07:03:36.898Z,26.43
2017-11-04T07:06:04.459Z,24.40
2017-11-04T07:08:31.959Z,24.60
2017-11-04T07:10:59.652Z,25.03
2017-11-04T07:13:28.097Z,24.67
2017-11-04T07:15:55.618Z,26.30
2017-11-04T07:18:23.289Z,25.60
2017-11-04T07:20:50.799Z,24.83
2017-11-04T07:23:18.329Z,26.30
2017-11-04T07:25:45.879Z,24.30
2017-11-04T07:28:13.396Z,26.83
2017-11-04T07:30:41.011Z,29.03
2017-11-04T07:33:08.862Z,27.30
2017-11-04T07:35:37.295Z,23.30
2017-11-04T07:38:04.915Z,25.07
2017-11-04T07:40:33.333Z,25.93
2017-11-04T07:43:00.902Z,25.60
2017-11-04T07:45:29.892Z,24.10
2017-11-04T07:47:57.482Z,24.97
2017-11-04T07:50:25.090Z,22.67
2017-11-04T07:52:52.629Z,23.90
2017-11-04T07:55:20.241Z,21.90
2017-11-04T07:57:48.527Z,23.17
2017-11-04T08:00:16.811Z,22.70
2017-11-04T08:02:44.399Z,21.90
2017-11-04T08:05:11.973Z,23.50
2017-11-04T08:07:39.612Z,23.90
2017-11-04T08:10:07.206Z,25.30
2017-11-04T08:12:34.732Z,22.97
2017-11-04T08:15:02.317Z,22.50
2017-11-04T08:17:29.934Z,22.77
2017-11-04T08:19:57.518Z,22.97
2017-11-04T08:22:25.027Z,22.60
2017-11-04T08:24:52.581Z,21.93
2017-11-04T08:27:20.156Z,27.03
2017-11-04T08:29:48.127Z,24.60
2017-11-04T08:32:17.679Z,27.00
2017-11-04T08:34:45.263Z,25.27
2017-11-04T08:37:12.828Z,26.50
2017-11-04T08:39:40.519Z,27.30
2017-11-04T08:42:08.020Z,26.73
2017-11-04T08:44:35.528Z,25.97
2017-11-04T08:47:04.040Z,23.50
2017-11-04T08:49:31.587Z,23.90
2017-11-04T08:51:59.239Z,24.17
2017-11-04T08:54:26.871Z,26.33
2017-11-04T08:56:54.372Z,25.87
2017-11-04T08:59:21.914Z,25.10
2017-11-04T09:01:50.243Z,22.50
2017-11-04T09:04:17.882Z,24.37
2017-11-04T09:06:45.396Z,22.87
2017-11-04T09:09:13.031Z,23.07
2017-11-04T09:11:40.543Z,23.50
2017-11-04T09:14:08.159Z,21.90
2017-11-04T09:16:35.727Z,19.73
2017-11-04T09:19:03.455Z,21.30
2017-11-04T09:21:30.967Z,23.93
2017-11-04T09:23:58.544Z,23.77
2017-11-04T09:26:26.820Z,21.77
2017-11-04T09:28:55.112Z,23.83
2017-11-04T09:31:22.751Z,27.80
2017-11-04T09:33:51.051Z,24.63
2017-11-04T09:36:18.580Z,25.03
2017-11-04T09:38:46.176Z,24.00
2017-11-04T09:41:13.696Z,26.33
2017-11-04T09:43:42.103Z,26.27
2017-11-04T09:46:09.742Z,30.83
2017-11-04T09:48:38.015Z,26.50
2017-11-04T09:51:05.520Z,23.30
2017-11-04T09:53:33.311Z,24.50
2017-11-04T09:56:00.903Z,25.17
2017-11-04T09:58:28.491Z,25.03
2017-11-04T10:00:56.004Z,23.33
2017-11-04T10:03:23.798Z,22.87
2017-11-04T10:05:51.371Z,24.23
2017-11-04T10:08:19.552Z,22.70
2017-11-04T10:10:47.695Z,23.80
2017-11-04T10:13:15.255Z,24.70
2017-11-04T10:15:43.917Z,25.27
2017-11-04T10:18:11.467Z,25.30
2017-11-04T10:20:39.474Z,23.20
2017-11-04T10:23:07.802Z,28.20
2017-11-04T10:25:35.433Z,26.40
2017-11-04T10:28:03.051Z,24.70
2017-11-04T10:30:30.559Z,28.20
2017-11-04T10:32:58.071Z,28.10
2017-11-04T10:35:25.892Z,24.30
2017-11-04T10:37:54.006Z,26.20
2017-11-04T10:40:21.855Z,26.70
2017-11-04T10:42:49.371Z,27.47
2017-11-04T10:45:16.958Z,24.77
2017-11-04T10:47:44.486Z,27.13
2017-11-04T10:50:12.021Z,28.70
2017-11-04T10:52:39.582Z,27.93
2017-11-04T10:55:07.086Z,25.73
2017-11-04T10:57:34.836Z,28.23
2017-11-04T11:00:02.553Z,24.80
2017-11-04T11:02:30.123Z,25.27
2017-11-04T11:04:57.711Z,24.00
2017-11-04T11:07:25.301Z,25.37
2017-11-04T11:09:52.954Z,26.37
2017-11-04T11:12:20.463Z,24.27
2017-11-04T11:14:48.103Z,23.17
2017-11-04T11:17:15.616Z,24.97
2017-11-04T11:19:43.336Z,26.03
2017-11-04T11:22:11.119Z,25.87
2017-11-04T11:24:38.683Z,24.17
2017-11-04T11:27:07.268Z,24.83
2017-11-04T11:29:34.785Z,23.87
2017-11-04T11:32:02.552Z,24.37
2017-11-04T11:34:30.249Z,24.10
2017-11-04T11:36:57.878Z,26.07
2017-11-04T11:39:25.395Z,23.70
2017-11-04T11:41:53.651Z,24.70
2017-11-04T11:44:21.168Z,22.87
2017-11-04T11:46:48.886Z,22.50
2017-11-04T11:49:17.571Z,23.83
2017-11-04T11:51:45.943Z,23.47
2017-11-04T11:54:13.455Z,22.60
2017-11-04T11:56:41.148Z,23.90
2017-11-04T11:59:08.688Z,23.20
2017-11-04T12:01:36.198Z,22.30
2017-11-04T12:04:03.816Z,21.70
2017-11-04T12:06:31.315Z,22.00
2017-11-04T12:08:58.859Z,20.57
2017-11-04T12:11:27.272Z,22.13
2017-11-04T12:13:54.788Z,21.60
2017-11-04T12:16:23.084Z,23.40
2017-11-04T12:18:51.400Z,19.17
2017-11-04T12:21:18.979Z,20.50
2017-11-04T12:23:47.023Z,21.93
2017-11-04T12:26:15.008Z,21.70
2017-11-04T12:28:42.507Z,20.23
2017-11-04T12:31:10.191Z,20.90
2017-11-04T12:33:37.922Z,20.10
2017-11-04T12:36:05.428Z,20.17
2017-11-04T12:38:32.936Z,20.10
2017-11-04T12:41:00.495Z,18.77
2017-11-04T12:43:28.005Z,17.40
2017-11-04T12:45:55.516Z,18.57
2017-11-04T12:48:23.102Z,17.97
2017-11-04T12:50:51.459Z,18.47
2017-11-04T12:53:19.006Z,20.57
2017-11-04T12:55:47.486Z,18.30
2017-11-04T12:58:15.057Z,17.70
2017-11-04T13:00:42.587Z,15.90
2017-11-04T13:03:10.276Z,15.60
2017-11-04T13:05:37.780Z,17.50
2017-11-04T13:08:05.326Z,17.30
2017-11-04T13:10:33.103Z,16.37
2017-11-04T13:13:00.676Z,19.23
2017-11-04T13:15:28.525Z,17.67
2017-11-04T13:17:56.071Z,16.47
2017-11-04T13:20:24.600Z,15.43
2017-11-04T13:22:52.199Z,16.47
2017-11-04T13:25:20.571Z,15.90
2017-11-04T13:27:48.293Z,17.77
2017-11-04T13:30:15.820Z,16.97
2017-11-04T13:32:43.430Z,15.90
2017-11-04T13:35:10.948Z,17.93
2017-11-04T13:37:38.691Z,16.77
2017-11-04T13:40:06.384Z,16.20
2017-11-04T13:42:33.967Z,16.40
2017-11-04T13:45:01.499Z,15.63
2017-11-04T13:47:29.065Z,15.40
2017-11-04T13:49:56.568Z,14.60
2017-11-04T13:52:24.080Z,13.70
2017-11-04T13:54:51.673Z,10.80
2017-11-04T13:57:19.185Z,10.63
2017-11-04T13:59:46.880Z,8.77
2017-11-04T14:02:14.440Z,8.40
2017-11-04T14:04:42.091Z,7.30
2017-11-04T14:07:09.595Z,8.17
2017-11-04T14:09:37.247Z,7.73
2017-11-04T14:12:04.755Z,8.60
2017-11-04T14:14:32.400Z,7.97
2017-11-04T14:16:59.951Z,7.63
2017-11-04T14:19:28.220Z,7.93
2017-11-04T14:21:55.929Z,8.03
2017-11-04T14:24:23.502Z,8.93
2017-11-04T14:26:51.015Z,7.37
2017-11-04T14:29:19.331Z,7.60
2017-11-04T14:31:47.009Z,10.40
2017-11-04T14:34:14.561Z,10.70
2017-11-04T14:36:42.138Z,8.73
2017-11-04T14:39:09.846Z,10.00
2017-11-04T14:41:37.407Z,7.60
2017-11-04T14:44:04.906Z,8.10
2017-11-04T14:46:32.650Z,10.10
2017-11-04T14:49:00.155Z,9.03
2017-11-04T14:51:27.672Z,8.80
2017-11-04T14:53:55.351Z,9.30
2017-11-04T14:56:23.058Z,8.60
2017-11-04T14:58:50.587Z,9.67
2017-11-04T15:01:18.195Z,8.27
2017-11-04T15:03:45.764Z,9.03
2017-11-04T15:06:13.955Z,9.70
2017-11-04T15:08:41.510Z,10.20
2017-11-04T15:11:09.109Z,11.80
2017-11-04T15:13:36.624Z,10.83
2017-11-04T15:16:04.137Z,11.10
2017-11-04T15:18:32.035Z,12.67
2017-11-04T15:20:59.547Z,13.80
2017-11-04T15:23:27.312Z,13.17
2017-11-04T15:25:54.903Z,14.33
2017-11-04T15:28:23.189Z,13.90
2017-11-04T15:30:51.470Z,15.57
2017-11-04T15:33:19.140Z,14.23
2017-11-04T15:35:46.663Z,12.97
2017-11-04T15:38:14.174Z,13.07
2017-11-04T15:40:41.783Z,11.60
2017-11-04T15:43:09.317Z,13.47
2017-11-04T15:45:36.827Z,12.30
2017-11-04T15:48:04.402Z,13.13
2017-11-04T15:50:31.932Z,13.60
2017-11-04T15:53:00.244Z,11.03
2017-11-04T15:55:27.837Z,11.67
2017-11-04T15:57:55.350Z,13.77
2017-11-04T16:00:22.865Z,14.07
2017-11-04T16:02:50.539Z,16.87
2017-11-04T16:05:18.059Z,15.53
2017-11-04T16:07:45.578Z,16.17
2017-11-04T16:10:14.004Z,18.30
2017-11-04T16:12:41.975Z,16.90
2017-11-04T16:15:09.560Z,14.70
2017-11-04T16:17:37.894Z,17.67
2017-11-04T16:20:05.510Z,16.70
2017-11-04T16:22:33.843Z,17.50
2017-11-04T16:25:01.366Z,14.83
2017-11-04T16:27:28.975Z,14.90
2017-11-04T16:29:56.540Z,15.00
2017-11-04T16:32:24.075Z,14.60
2017-11-04T16:34:51.592Z,15.63
2017-11-04T16:37:19.146Z,16.77
2017-11-04T16:39:47.432Z,17.93
2017-11-04T16:42:15.704Z,17.10
2017-11-04T16:44:44.040Z,17.97
2017-11-04T16:47:11.547Z,19.50
2017-11-04T16:49:39.064Z,17.40
2017-11-04T16:52:06.632Z,15.80
2017-11-04T16:54:34.371Z,13.83
2017-11-04T16:57:01.931Z,15.43
2017-11-04T16:59:29.500Z,12.90
2017-11-04T17:01:57.826Z,16.67
2017-11-04T17:04:26.108Z,14.77
2017-11-04T17:06:53.843Z,16.03
2017-11-04T17:09:21.352Z,16.20
2017-11-04T17:11:48.883Z,15.93
2017-11-04T17:14:16.437Z,14.77
2017-11-04T17:16:43.948Z,16.97
2017-11-04T17:19:11.515Z,17.40
2017-11-04T17:21:39.846Z,17.37
2017-11-04T17:24:07.378Z,15.77
2017-11-04T17:26:34.901Z,17.20
2017-11-04T17:29:02.528Z,18.03
2017-11-04T17:31:30.801Z,22.20
2017-11-04T17:33:59.165Z,21.40
2017-11-04T17:36:26.747Z,23.37
2017-11-04T17:38:54.272Z,23.00
2017-11-04T17:41:21.827Z,25.10
2017-11-04T17:43:49.435Z,23.03
2017-11-04T17:46:17.184Z,20.93
2017-11-04T17:48:45.580Z,25.60
2017-11-04T17:51:13.091Z,21.80
2017-11-04T17:53:40.733Z,22.10
2017-11-04T17:56:08.242Z,22.10
2017-11-04T17:58:36.031Z,20.23
2017-11-04T18:01:03.571Z,21.23
2017-11-04T18:03:31.199Z,20.87
2017-11-04T18:05:58.757Z,24.37
2017-11-04T18:08:26.290Z,23.30
2017-11-04T18:10:53.964Z,20.50
2017-11-04T18:13:21.543Z,21.50
2017-11-04T18:15:49.071Z,23.20
2017-11-04T18:18:16.765Z,22.43
2017-11-04T18:20:45.108Z,24.20
2017-11-04T18:23:12.631Z,23.90
2017-11-04T18:25:40.154Z,20.83
2017-11-04T18:28:07.800Z,24.83
2017-11-04T18:30:35.315Z,24.53
2017-11-04T18:33:02.875Z,24.73
2017-11-04T18:35:30.447Z,25.50
2017-11-04T18:37:57.959Z,24.17
2017-11-04T18:40:25.482Z,25.43
2017-11-04T18:42:53.091Z,27.50
2017-11-04T18:45:20.612Z,27.70
2017-11-04T18:47:48.131Z,29.50
2017-11-04T18:50:15.999Z,26.50
2017-11-04T18:52:43.510Z,26.43
2017-11-04T18:55:11.025Z,26.10
2017-11-04T18:57:38.573Z,25.50
2017-11-04T19:00:06.082Z,25.67
2017-11-04T19:02:33.736Z,25.10
2017-11-04T19:05:01.366Z,26.33
2017-11-04T19:07:28.866Z,26.03
2017-11-04T19:09:56.427Z,29.07
2017-11-04T19:12:23.979Z,25.00
2017-11-04T19:14:51.496Z,24.60
2017-11-04T19:17:19.118Z,25.00
2017-11-04T19:19:47.299Z,24.73
2017-11-04T19:22:14.942Z,25.60
2017-11-04T19:24:42.628Z,25.50
2017-11-04T19:27:10.908Z,25.17
2017-11-04T19:29:39.217Z,28.90
2017-11-04T19:32:06.884Z,29.40
2017-11-04T19:34:34.647Z,27.97
2017-11-04T19:37:02.678Z,29.63
2017-11-04T19:39:30.459Z,29.97
2017-11-04T19:41:58.140Z,29.80
2017-11-04T19:44:26.137Z,31.20
2017-11-04T19:46:53.694Z,33.30
2017-11-04T19:49:21.332Z,27.87
2017-11-04T19:51:48.914Z,26.90
2017-11-04T19:54:16.423Z,28.93
2017-11-04T19:56:44.898Z,28.90
2017-11-04T19:59:12.583Z,28.67
2017-11-04T20:01:40.231Z,30.43
2017-11-04T20:04:08.508Z,31.63
2017-11-04T20:06:36.108Z,30.33
2017-11-04T20:09:03.716Z,30.80
2017-11-04T20:11:31.240Z,28.90
2017-11-04T20:13:58.822Z,26.87
2017-11-04T20:16:26.396Z,32.60
2017-11-04T20:18:54.072Z,33.30
2017-11-04T20:21:22.401Z,38.87
2017-11-04T20:23:49.914Z,24.90
2017-11-04T20:26:18.548Z,30.13
2017-11-04T20:28:46.058Z,28.27
2017-11-04T20:31:13.626Z,30.97
2017-11-04T20:33:41.204Z,33.57
2017-11-04T20:36:08.711Z,28.90
2017-11-04T20:38:36.278Z,29.97
2017-11-04T20:41:03.931Z,33.63
2017-11-04T20:43:31.441Z,29.40
2017-11-04T20:45:58.947Z,28.60
2017-11-04T20:48:26.504Z,27.90
2017-11-04T20:50:54.048Z,27.10
2017-11-04T20:53:21.555Z,26.10
2017-11-04T20:55:49.287Z,28.47
2017-11-04T20:58:16.817Z,29.90
2017-11-04T21:00:44.359Z,27.73
2017-11-04T21:03:11.979Z,29.83
2017-11-04T21:05:39.560Z,26.97
2017-11-04T21:08:07.071Z,33.17
2017-11-04T21:10:34.697Z,41.57
2017-11-04T21:13:02.215Z,45.60
2017-11-04T21:15:29.758Z,40.43
2017-11-04T21:17:57.333Z,35.40
2017-11-04T21:20:24.891Z,40.07
2017-11-04T21:22:52.454Z,40.67
2017-11-04T21:25:20.016Z,36.20
2017-11-04T21:27:47.604Z,39.30
2017-11-04T21:30:15.163Z,36.60
2017-11-04T21:32:42.789Z,35.50
2017-11-04T21:35:10.350Z,34.10
2017-11-04T21:37:37.929Z,38.10
2017-11-04T21:40:05.614Z,36.40
2017-11-04T21:42:33.135Z,39.00
2017-11-04T21:45:00.694Z,41.53
2017-11-04T21:47:28.285Z,35.63
2017-11-04T21:49:56.255Z,27.33
2017-11-04T21:52:23.907Z,30.13
2017-11-04T21:54:51.869Z,33.23
2017-11-04T21:57:20.152Z,36.10
2017-11-04T21:59:48.476Z,34.90
2017-11-04T22:02:16.113Z,37.30
2017-11-04T22:04:43.718Z,35.47
2017-11-04T22:07:11.292Z,35.67
2017-11-04T22:09:39.252Z,38.07
2017-11-04T22:12:06.810Z,33.97
2017-11-04T22:14:34.435Z,36.63
2017-11-04T22:17:02.142Z,42.87
2017-11-04T22:19:29.647Z,45.33
2017-11-04T22:21:57.326Z,45.00
2017-11-04T22:24:25.112Z,37.23
2017-11-04T22:26:52.627Z,43.30
2017-11-04T22:29:20.248Z,40.93
2017-11-04T22:31:47.899Z,45.67
2017-11-04T22:34:15.427Z,42.80
2017-11-04T22:36:42.987Z,44.60
2017-11-04T22:39:10.613Z,45.10
2017-11-04T22:41:39.028Z,43.73
2017-11-04T22:44:06.531Z,47.60
2017-11-04T22:46:34.520Z,43.50
2017-11-04T22:49:02.188Z,42.73
2017-11-04T22:51:29.715Z,39.97
2017-11-04T22:53:57.579Z,41.00
2017-11-04T22:56:25.134Z,43.03
2017-11-04T22:58:52.714Z,45.40
2017-11-04T23:01:21.061Z,44.57
2017-11-04T23:03:49.755Z,47.47
2017-11-04T23:06:17.264Z,48.47
2017-11-04T23:08:45.608Z,50.33
2017-11-04T23:11:13.358Z,46.70
2017-11-04T23:13:40.944Z,46.80
2017-11-04T23:16:09.366Z,48.43
2017-11-04T23:18:36.983Z,69.87
2017-11-04T23:21:04.509Z,53.70
2017-11-04T23:23:32.356Z,50.43
2017-11-04T23:25:59.960Z,46.63
2017-11-04T23:28:27.644Z,43.57
2017-11-04T23:30:55.227Z,49.07
2017-11-04T23:33:22.759Z,45.63
2017-11-04T23:35:50.633Z,49.10
2017-11-04T23:38:18.235Z,48.60
2017-11-04T23:40:46.360Z,48.33
2017-11-04T23:43:13.886Z,53.50
2017-11-04T23:45:41.476Z,50.50
2017-11-04T23:48:09.100Z,43.40
2017-11-04T23:50:36.688Z,39.60
2017-11-04T23:53:04.547Z,42.90
2017-11-04T23:55:32.060Z,44.27
2017-11-04T23:57:59.674Z,41.27
